sensor_id;sensor_type;location;lat;lon;timestamp;temperature;humidity
33927;DHT22;20485;50.992;5.550;2022-12-17T00:02:25;-4.90;99.90
33927;DHT22;20485;50.992;5.550;2022-12-17T00:05:09;-4.90;99.90
33927;DHT22;20485;50.992;5.550;2022-12-17T00:07:59;-4.90;99.90
33927;DHT22;20485;50.992;5.550;2022-12-17T00:10:43;-5.00;99.90
33927;DHT22;20485;50.992;5.550;2022-12-17T00:13:27;-5.00;99.90
33927;DHT22;20485;50.992;5.550;2022-12-17T00:16:11;-5.00;99.90
33927;DHT22;20485;50.992;5.550;2022-12-17T00:18:55;-5.00;99.90
33927;DHT22;20485;50.992;5.550;2022-12-17T00:21:39;-5.00;99.90
33927;DHT22;20485;50.992;5.550;2022-12-17T00:24:31;-5.10;99.90
33927;DHT22;20485;50.992;5.550;2022-12-17T00:27:15;-5.10;99.90
33927;DHT22;20485;50.992;5.550;2022-12-17T00:29:59;-5.10;99.90
33927;DHT22;20485;50.992;5.550;2022-12-17T00:32:43;-5.20;99.90
33927;DHT22;20485;50.992;5.550;2022-12-17T00:35:27;-5.20;99.90
33927;DHT22;20485;50.992;5.550;2022-12-17T00:38:15;-5.30;99.90
33927;DHT22;20485;50.992;5.550;2022-12-17T00:40:59;-5.40;99.90
33927;DHT22;20485;50.992;5.550;2022-12-17T00:43:44;-5.40;99.90
33927;DHT22;20485;50.992;5.550;2022-12-17T00:46:28;-5.40;99.90
33927;DHT22;20485;50.992;5.550;2022-12-17T00:49:12;-5.40;99.90
33927;DHT22;20485;50.992;5.550;2022-12-17T00:51:56;-5.30;99.90
33927;DHT22;20485;50.992;5.550;2022-12-17T00:54:40;-5.40;99.90
33927;DHT22;20485;50.992;5.550;2022-12-17T00:57:24;-5.30;99.90
33927;DHT22;20485;50.992;5.550;2022-12-17T01:00:09;-5.40;99.90
33927;DHT22;20485;50.992;5.550;2022-12-17T01:03:02;-5.40;99.90
33927;DHT22;20485;50.992;5.550;2022-12-17T01:05:47;-5.40;99.90
33927;DHT22;20485;50.992;5.550;2022-12-17T01:08:31;-5.50;99.90
33927;DHT22;20485;50.992;5.550;2022-12-17T01:11:15;-5.60;99.90
33927;DHT22;20485;50.992;5.550;2022-12-17T01:13:59;-5.60;99.90
33927;DHT22;20485;50.992;5.550;2022-12-17T01:16:43;-5.50;99.90
33927;DHT22;20485;50.992;5.550;2022-12-17T01:19:27;-5.50;99.90
33927;DHT22;20485;50.992;5.550;2022-12-17T01:22:11;-5.40;99.90
33927;DHT22;20485;50.992;5.550;2022-12-17T01:24:55;-5.40;99.90
33927;DHT22;20485;50.992;5.550;2022-12-17T01:27:39;-5.40;99.90
33927;DHT22;20485;50.992;5.550;2022-12-17T01:30:23;-5.30;99.90
33927;DHT22;20485;50.992;5.550;2022-12-17T01:33:09;-5.30;99.90
33927;DHT22;20485;50.992;5.550;2022-12-17T01:35:57;-5.20;99.90
33927;DHT22;20485;50.992;5.550;2022-12-17T01:38:42;-5.20;99.90
33927;DHT22;20485;50.992;5.550;2022-12-17T01:41:26;-5.20;99.90
33927;DHT22;20485;50.992;5.550;2022-12-17T01:44:47;-5.20;99.90
33927;DHT22;20485;50.992;5.550;2022-12-17T01:47:52;-5.10;99.90
33927;DHT22;20485;50.992;5.550;2022-12-17T01:50:41;-5.00;99.90
33927;DHT22;20485;50.992;5.550;2022-12-17T01:53:31;-4.90;99.90
33927;DHT22;20485;50.992;5.550;2022-12-17T01:56:17;-4.90;99.90
33927;DHT22;20485;50.992;5.550;2022-12-17T01:59:03;-4.80;99.90
33927;DHT22;20485;50.992;5.550;2022-12-17T02:01:48;-4.80;99.90
33927;DHT22;20485;50.992;5.550;2022-12-17T02:04:32;-4.80;99.90
33927;DHT22;20485;50.992;5.550;2022-12-17T02:10:32;-4.80;99.90
33927;DHT22;20485;50.992;5.550;2022-12-17T02:13:20;-4.80;99.90
33927;DHT22;20485;50.992;5.550;2022-12-17T02:16:17;-4.70;99.90
33927;DHT22;20485;50.992;5.550;2022-12-17T02:22:43;-4.70;99.90
33927;DHT22;20485;50.992;5.550;2022-12-17T02:28:19;-4.60;99.90
33927;DHT22;20485;50.992;5.550;2022-12-17T02:31:05;-4.60;99.90
33927;DHT22;20485;50.992;5.550;2022-12-17T02:33:50;-4.50;99.90
33927;DHT22;20485;50.992;5.550;2022-12-17T02:36:35;-4.50;99.90
33927;DHT22;20485;50.992;5.550;2022-12-17T02:39:19;-4.50;99.90
33927;DHT22;20485;50.992;5.550;2022-12-17T02:42:04;-4.50;99.90
33927;DHT22;20485;50.992;5.550;2022-12-17T02:44:49;-4.40;99.90
33927;DHT22;20485;50.992;5.550;2022-12-17T02:47:33;-4.30;99.90
33927;DHT22;20485;50.992;5.550;2022-12-17T02:50:18;-4.30;99.90
33927;DHT22;20485;50.992;5.550;2022-12-17T02:53:03;-4.30;99.90
33927;DHT22;20485;50.992;5.550;2022-12-17T02:55:47;-4.30;99.90
33927;DHT22;20485;50.992;5.550;2022-12-17T02:58:31;-4.20;99.90
33927;DHT22;20485;50.992;5.550;2022-12-17T03:01:15;-4.20;99.90
33927;DHT22;20485;50.992;5.550;2022-12-17T03:03:59;-4.20;99.90
33927;DHT22;20485;50.992;5.550;2022-12-17T03:06:43;-4.10;99.90
33927;DHT22;20485;50.992;5.550;2022-12-17T03:09:27;-4.10;99.90
33927;DHT22;20485;50.992;5.550;2022-12-17T03:12:11;-4.10;99.90
33927;DHT22;20485;50.992;5.550;2022-12-17T03:14:55;-4.00;99.90
33927;DHT22;20485;50.992;5.550;2022-12-17T03:17:39;-4.00;99.90
33927;DHT22;20485;50.992;5.550;2022-12-17T03:20:32;-4.00;99.90
33927;DHT22;20485;50.992;5.550;2022-12-17T03:23:17;-4.00;99.90
33927;DHT22;20485;50.992;5.550;2022-12-17T03:26:02;-3.90;99.90
33927;DHT22;20485;50.992;5.550;2022-12-17T03:28:46;-3.80;99.90
33927;DHT22;20485;50.992;5.550;2022-12-17T03:31:30;-3.80;99.90
33927;DHT22;20485;50.992;5.550;2022-12-17T03:34:14;-3.70;99.90
33927;DHT22;20485;50.992;5.550;2022-12-17T03:36:58;-3.60;99.90
33927;DHT22;20485;50.992;5.550;2022-12-17T03:39:42;-3.70;99.90
33927;DHT22;20485;50.992;5.550;2022-12-17T03:42:26;-3.60;99.90
33927;DHT22;20485;50.992;5.550;2022-12-17T03:45:11;-3.50;99.90
33927;DHT22;20485;50.992;5.550;2022-12-17T03:50:50;-3.50;99.90
33927;DHT22;20485;50.992;5.550;2022-12-17T03:53:34;-3.50;99.90
33927;DHT22;20485;50.992;5.550;2022-12-17T03:56:18;-3.50;99.90
33927;DHT22;20485;50.992;5.550;2022-12-17T03:59:02;-3.40;99.90
33927;DHT22;20485;50.992;5.550;2022-12-17T04:01:46;-3.40;99.90
33927;DHT22;20485;50.992;5.550;2022-12-17T04:04:30;-3.40;99.90
33927;DHT22;20485;50.992;5.550;2022-12-17T04:07:14;-3.30;99.90
33927;DHT22;20485;50.992;5.550;2022-12-17T04:09:58;-3.30;99.90
33927;DHT22;20485;50.992;5.550;2022-12-17T04:12:42;-3.30;99.90
33927;DHT22;20485;50.992;5.550;2022-12-17T04:15:26;-3.30;99.90
33927;DHT22;20485;50.992;5.550;2022-12-17T04:18:10;-3.30;99.90
33927;DHT22;20485;50.992;5.550;2022-12-17T04:20:55;-3.20;99.90
33927;DHT22;20485;50.992;5.550;2022-12-17T04:23:39;-3.20;99.90
33927;DHT22;20485;50.992;5.550;2022-12-17T04:26:23;-3.20;99.90
33927;DHT22;20485;50.992;5.550;2022-12-17T04:29:07;-3.20;99.90
33927;DHT22;20485;50.992;5.550;2022-12-17T04:31:51;-3.20;99.90
33927;DHT22;20485;50.992;5.550;2022-12-17T04:34:35;-3.20;99.90
33927;DHT22;20485;50.992;5.550;2022-12-17T04:37:19;-3.10;99.90
33927;DHT22;20485;50.992;5.550;2022-12-17T04:40:04;-3.10;99.90
33927;DHT22;20485;50.992;5.550;2022-12-17T04:42:48;-3.20;99.90
33927;DHT22;20485;50.992;5.550;2022-12-17T04:45:32;-3.10;99.90
33927;DHT22;20485;50.992;5.550;2022-12-17T04:48:16;-3.10;99.90
33927;DHT22;20485;50.992;5.550;2022-12-17T04:51:00;-3.10;99.90
33927;DHT22;20485;50.992;5.550;2022-12-17T04:53:44;-3.10;99.90
33927;DHT22;20485;50.992;5.550;2022-12-17T04:56:28;-3.10;99.90
33927;DHT22;20485;50.992;5.550;2022-12-17T04:59:12;-3.10;99.90
33927;DHT22;20485;50.992;5.550;2022-12-17T05:01:57;-3.10;99.90
33927;DHT22;20485;50.992;5.550;2022-12-17T05:04:41;-3.10;99.90
33927;DHT22;20485;50.992;5.550;2022-12-17T05:07:25;-3.10;99.90
33927;DHT22;20485;50.992;5.550;2022-12-17T05:10:09;-3.10;99.90
33927;DHT22;20485;50.992;5.550;2022-12-17T05:13:00;-3.10;99.90
33927;DHT22;20485;50.992;5.550;2022-12-17T05:15:45;-3.20;99.90
33927;DHT22;20485;50.992;5.550;2022-12-17T05:18:29;-3.00;99.90
33927;DHT22;20485;50.992;5.550;2022-12-17T05:21:14;-3.00;99.90
33927;DHT22;20485;50.992;5.550;2022-12-17T05:23:58;-3.00;99.90
33927;DHT22;20485;50.992;5.550;2022-12-17T05:26:42;-2.90;99.90
33927;DHT22;20485;50.992;5.550;2022-12-17T05:29:26;-2.10;99.90
33927;DHT22;20485;50.992;5.550;2022-12-17T05:32:11;-3.00;99.90
33927;DHT22;20485;50.992;5.550;2022-12-17T08:26:09;-2.50;99.90
33927;DHT22;20485;50.992;5.550;2022-12-17T08:28:54;-2.50;99.90
33927;DHT22;20485;50.992;5.550;2022-12-17T08:31:37;-2.50;99.90
33927;DHT22;20485;50.992;5.550;2022-12-17T08:34:22;-2.50;99.90
33927;DHT22;20485;50.992;5.550;2022-12-17T08:37:06;-2.50;99.90
33927;DHT22;20485;50.992;5.550;2022-12-17T08:39:50;-2.50;99.90
33927;DHT22;20485;50.992;5.550;2022-12-17T08:42:34;-2.50;99.90
33927;DHT22;20485;50.992;5.550;2022-12-17T08:45:18;-2.50;99.90
33927;DHT22;20485;50.992;5.550;2022-12-17T08:48:05;-2.50;99.90
33927;DHT22;20485;50.992;5.550;2022-12-17T08:50:50;-2.40;99.90
33927;DHT22;20485;50.992;5.550;2022-12-17T08:53:34;-2.50;99.90
33927;DHT22;20485;50.992;5.550;2022-12-17T08:56:18;-2.50;99.90
33927;DHT22;20485;50.992;5.550;2022-12-17T08:59:02;-2.60;99.90
33927;DHT22;20485;50.992;5.550;2022-12-17T09:01:47;-2.50;99.90
33927;DHT22;20485;50.992;5.550;2022-12-17T09:04:31;-2.60;99.90
33927;DHT22;20485;50.992;5.550;2022-12-17T09:07:14;-2.80;99.90
33927;DHT22;20485;50.992;5.550;2022-12-17T09:09:59;-2.70;99.90
33927;DHT22;20485;50.992;5.550;2022-12-17T09:12:43;-2.60;99.90
33927;DHT22;20485;50.992;5.550;2022-12-17T09:15:27;-2.60;99.90
33927;DHT22;20485;50.992;5.550;2022-12-17T09:18:11;-2.60;99.90
33927;DHT22;20485;50.992;5.550;2022-12-17T09:20:55;-2.60;99.90
33927;DHT22;20485;50.992;5.550;2022-12-17T09:23:40;-2.50;99.90
33927;DHT22;20485;50.992;5.550;2022-12-17T09:26:24;-2.50;99.90
33927;DHT22;20485;50.992;5.550;2022-12-17T09:29:08;-2.50;99.90
33927;DHT22;20485;50.992;5.550;2022-12-17T09:31:52;-2.40;99.90
33927;DHT22;20485;50.992;5.550;2022-12-17T09:34:36;-2.00;99.90
33927;DHT22;20485;50.992;5.550;2022-12-17T09:37:20;-2.40;99.90
33927;DHT22;20485;50.992;5.550;2022-12-17T09:40:05;-2.50;99.90
33927;DHT22;20485;50.992;5.550;2022-12-17T09:42:59;-2.60;99.90
33927;DHT22;20485;50.992;5.550;2022-12-17T09:51:29;-2.40;99.90
33927;DHT22;20485;50.992;5.550;2022-12-17T09:57:12;-2.30;99.90
33927;DHT22;20485;50.992;5.550;2022-12-17T10:03:02;-2.30;99.90
33927;DHT22;20485;50.992;5.550;2022-12-17T10:05:48;-2.20;99.90
33927;DHT22;20485;50.992;5.550;2022-12-17T10:08:33;-2.20;99.90
33927;DHT22;20485;50.992;5.550;2022-12-17T10:11:22;-2.20;99.90
33927;DHT22;20485;50.992;5.550;2022-12-17T10:14:20;-2.10;99.90
33927;DHT22;20485;50.992;5.550;2022-12-17T10:17:05;-2.10;99.90
33927;DHT22;20485;50.992;5.550;2022-12-17T10:19:52;-2.10;99.90
33927;DHT22;20485;50.992;5.550;2022-12-17T10:22:45;-2.00;99.90
33927;DHT22;20485;50.992;5.550;2022-12-17T10:25:29;-2.00;99.90
33927;DHT22;20485;50.992;5.550;2022-12-17T10:28:17;-2.10;99.90
33927;DHT22;20485;50.992;5.550;2022-12-17T10:31:07;-2.00;99.90
33927;DHT22;20485;50.992;5.550;2022-12-17T10:33:55;-2.10;99.90
33927;DHT22;20485;50.992;5.550;2022-12-17T10:36:50;-2.20;99.90
33927;DHT22;20485;50.992;5.550;2022-12-17T10:39:36;-2.10;99.90
33927;DHT22;20485;50.992;5.550;2022-12-17T10:42:24;-2.10;99.90
33927;DHT22;20485;50.992;5.550;2022-12-17T10:51:31;-2.10;99.90
33927;DHT22;20485;50.992;5.550;2022-12-17T10:54:21;-2.20;99.90
33927;DHT22;20485;50.992;5.550;2022-12-17T10:57:06;-2.20;99.90
33927;DHT22;20485;50.992;5.550;2022-12-17T10:59:50;-2.10;99.90
33927;DHT22;20485;50.992;5.550;2022-12-17T11:02:36;-2.10;99.90
33927;DHT22;20485;50.992;5.550;2022-12-17T11:05:26;-2.00;99.90
33927;DHT22;20485;50.992;5.550;2022-12-17T14:11:05;-2.30;99.90
33927;DHT22;20485;50.992;5.550;2022-12-17T14:13:49;0.10;99.90
33927;DHT22;20485;50.992;5.550;2022-12-17T14:16:19;-2.10;99.90
33927;DHT22;20485;50.992;5.550;2022-12-17T14:18:50;-2.10;99.90
33927;DHT22;20485;50.992;5.550;2022-12-17T14:21:16;-2.10;99.90
33927;DHT22;20485;50.992;5.550;2022-12-17T14:23:43;-1.90;99.90
33927;DHT22;20485;50.992;5.550;2022-12-17T14:26:10;-2.20;99.90
33927;DHT22;20485;50.992;5.550;2022-12-17T14:28:45;-2.40;99.90
33927;DHT22;20485;50.992;5.550;2022-12-17T14:31:25;-2.40;99.90
33927;DHT22;20485;50.992;5.550;2022-12-17T14:36:41;-2.20;99.90
33927;DHT22;20485;50.992;5.550;2022-12-17T14:42:29;-2.20;99.90
33927;DHT22;20485;50.992;5.550;2022-12-17T14:45:20;-2.10;99.90
33927;DHT22;20485;50.992;5.550;2022-12-17T14:47:57;-2.50;99.90
33927;DHT22;20485;50.992;5.550;2022-12-17T14:52:59;-2.50;99.90
33927;DHT22;20485;50.992;5.550;2022-12-17T14:55:38;-2.50;99.90
33927;DHT22;20485;50.992;5.550;2022-12-17T15:01:03;-2.60;99.90
33927;DHT22;20485;50.992;5.550;2022-12-17T15:03:42;-2.70;99.90
33927;DHT22;20485;50.992;5.550;2022-12-17T15:06:14;-2.40;99.90
33927;DHT22;20485;50.992;5.550;2022-12-17T15:08:45;-2.70;99.90
33927;DHT22;20485;50.992;5.550;2022-12-17T15:11:19;-1.20;99.90
33927;DHT22;20485;50.992;5.550;2022-12-17T15:16:19;-1.90;99.90
33927;DHT22;20485;50.992;5.550;2022-12-17T15:18:55;-3.00;99.90
33927;DHT22;20485;50.992;5.550;2022-12-17T15:21:32;-3.10;99.90
33927;DHT22;20485;50.992;5.550;2022-12-17T15:23:59;-3.30;99.90
33927;DHT22;20485;50.992;5.550;2022-12-17T15:26:30;-3.30;99.90
33927;DHT22;20485;50.992;5.550;2022-12-17T15:28:57;-3.30;99.90
33927;DHT22;20485;50.992;5.550;2022-12-17T15:31:27;-3.30;99.90
33927;DHT22;20485;50.992;5.550;2022-12-17T15:33:57;-3.40;99.90
33927;DHT22;20485;50.992;5.550;2022-12-17T15:36:53;-1.20;99.90
33927;DHT22;20485;50.992;5.550;2022-12-17T15:39:20;-3.60;99.90
33927;DHT22;20485;50.992;5.550;2022-12-17T15:41:47;-3.60;99.90
33927;DHT22;20485;50.992;5.550;2022-12-17T15:45:01;-3.70;99.90
33927;DHT22;20485;50.992;5.550;2022-12-17T15:50:10;-4.10;99.90
33927;DHT22;20485;50.992;5.550;2022-12-17T16:52:51;-4.10;99.90
33927;DHT22;20485;50.992;5.550;2022-12-17T16:55:29;-4.10;99.90
33927;DHT22;20485;50.992;5.550;2022-12-17T16:57:55;-3.90;99.90
33927;DHT22;20485;50.992;5.550;2022-12-17T17:00:23;-4.00;99.90
33927;DHT22;20485;50.992;5.550;2022-12-17T17:02:51;-4.00;99.90
33927;DHT22;20485;50.992;5.550;2022-12-17T17:05:21;-5.10;99.90
33927;DHT22;20485;50.992;5.550;2022-12-17T17:07:52;-4.20;99.90
33927;DHT22;20485;50.992;5.550;2022-12-17T17:10:35;-7.20;99.90
33927;DHT22;20485;50.992;5.550;2022-12-17T17:13:03;-4.00;99.90
33927;DHT22;20485;50.992;5.550;2022-12-17T17:15:46;-4.00;99.90
33927;DHT22;20485;50.992;5.550;2022-12-17T17:18:13;-2.40;99.90
33927;DHT22;20485;50.992;5.550;2022-12-17T17:20:49;-3.90;99.90
33927;DHT22;20485;50.992;5.550;2022-12-17T17:23:26;-4.00;99.90
33927;DHT22;20485;50.992;5.550;2022-12-17T17:26:01;-3.90;99.90
33927;DHT22;20485;50.992;5.550;2022-12-17T17:28:28;-3.90;99.90
33927;DHT22;20485;50.992;5.550;2022-12-17T17:31:06;-3.80;99.90
33927;DHT22;20485;50.992;5.550;2022-12-17T17:33:41;-3.90;99.90
33927;DHT22;20485;50.992;5.550;2022-12-17T17:36:22;-3.90;99.90
33927;DHT22;20485;50.992;5.550;2022-12-17T17:38:57;-3.90;99.90
33927;DHT22;20485;50.992;5.550;2022-12-17T17:41:32;-3.90;99.90
33927;DHT22;20485;50.992;5.550;2022-12-17T17:44:11;-4.00;99.90
33927;DHT22;20485;50.992;5.550;2022-12-17T17:46:39;-3.90;99.90
33927;DHT22;20485;50.992;5.550;2022-12-17T17:49:10;-3.80;99.90
33927;DHT22;20485;50.992;5.550;2022-12-17T17:51:40;-4.00;99.90
33927;DHT22;20485;50.992;5.550;2022-12-17T17:54:06;-4.00;99.90
33927;DHT22;20485;50.992;5.550;2022-12-17T17:56:37;-4.10;99.90
33927;DHT22;20485;50.992;5.550;2022-12-17T17:59:10;-4.00;99.90
33927;DHT22;20485;50.992;5.550;2022-12-17T18:01:43;-1.40;99.90
33927;DHT22;20485;50.992;5.550;2022-12-17T18:04:34;-4.20;99.90
33927;DHT22;20485;50.992;5.550;2022-12-17T18:07:10;-3.40;99.90
33927;DHT22;20485;50.992;5.550;2022-12-17T18:09:37;-0.50;99.90
33927;DHT22;20485;50.992;5.550;2022-12-17T18:12:07;-4.20;99.90
33927;DHT22;20485;50.992;5.550;2022-12-17T18:14:51;-2.30;99.90
33927;DHT22;20485;50.992;5.550;2022-12-17T18:17:17;-4.30;99.90
33927;DHT22;20485;50.992;5.550;2022-12-17T18:19:43;-4.40;99.90
33927;DHT22;20485;50.992;5.550;2022-12-17T18:22:08;-4.40;99.90
33927;DHT22;20485;50.992;5.550;2022-12-17T18:24:34;-4.50;99.90
33927;DHT22;20485;50.992;5.550;2022-12-17T18:26:59;-4.50;99.90
33927;DHT22;20485;50.992;5.550;2022-12-17T18:29:26;-4.60;99.90
33927;DHT22;20485;50.992;5.550;2022-12-17T18:31:53;-4.50;99.90
33927;DHT22;20485;50.992;5.550;2022-12-17T18:34:21;-4.50;99.90
33927;DHT22;20485;50.992;5.550;2022-12-17T18:36:48;-4.60;99.90
33927;DHT22;20485;50.992;5.550;2022-12-17T18:39:17;-4.60;99.90
33927;DHT22;20485;50.992;5.550;2022-12-17T18:41:43;-4.70;99.90
33927;DHT22;20485;50.992;5.550;2022-12-17T18:44:29;-4.70;99.90
33927;DHT22;20485;50.992;5.550;2022-12-17T18:46:55;-4.90;99.90
33927;DHT22;20485;50.992;5.550;2022-12-17T18:49:22;-5.00;99.90
33927;DHT22;20485;50.992;5.550;2022-12-17T18:51:49;-5.10;99.90
33927;DHT22;20485;50.992;5.550;2022-12-17T18:54:17;-5.20;99.90
33927;DHT22;20485;50.992;5.550;2022-12-17T18:56:43;-5.20;99.90
33927;DHT22;20485;50.992;5.550;2022-12-17T18:59:12;-5.20;99.90
33927;DHT22;20485;50.992;5.550;2022-12-17T19:01:40;-5.30;99.90
33927;DHT22;20485;50.992;5.550;2022-12-17T19:04:09;-5.30;99.90
33927;DHT22;20485;50.992;5.550;2022-12-17T19:06:36;-5.30;99.90
33927;DHT22;20485;50.992;5.550;2022-12-17T19:09:05;-5.30;99.90
33927;DHT22;20485;50.992;5.550;2022-12-17T19:11:32;-5.30;99.90
33927;DHT22;20485;50.992;5.550;2022-12-17T19:13:58;-5.40;99.90
33927;DHT22;20485;50.992;5.550;2022-12-17T19:16:26;-5.40;99.90
33927;DHT22;20485;50.992;5.550;2022-12-17T19:18:53;-5.50;99.90
33927;DHT22;20485;50.992;5.550;2022-12-17T19:21:20;-5.60;99.90
33927;DHT22;20485;50.992;5.550;2022-12-17T19:23:47;-5.60;99.90
33927;DHT22;20485;50.992;5.550;2022-12-17T19:26:15;-5.70;99.90
33927;DHT22;20485;50.992;5.550;2022-12-17T19:28:45;-5.70;99.90
33927;DHT22;20485;50.992;5.550;2022-12-17T19:31:11;-5.60;99.90
33927;DHT22;20485;50.992;5.550;2022-12-17T19:33:38;-5.50;99.90
33927;DHT22;20485;50.992;5.550;2022-12-17T19:36:06;-5.60;99.90
33927;DHT22;20485;50.992;5.550;2022-12-17T19:38:33;-5.70;99.90
33927;DHT22;20485;50.992;5.550;2022-12-17T19:41:13;-5.60;99.90
33927;DHT22;20485;50.992;5.550;2022-12-17T19:43:43;-5.70;99.90
33927;DHT22;20485;50.992;5.550;2022-12-17T19:46:14;-5.70;99.90
33927;DHT22;20485;50.992;5.550;2022-12-17T19:48:41;-5.80;99.90
33927;DHT22;20485;50.992;5.550;2022-12-17T19:51:08;-5.80;99.90
33927;DHT22;20485;50.992;5.550;2022-12-17T19:53:38;-5.90;99.90
33927;DHT22;20485;50.992;5.550;2022-12-17T19:56:23;-5.90;99.90
33927;DHT22;20485;50.992;5.550;2022-12-17T19:58:52;-5.90;99.90
33927;DHT22;20485;50.992;5.550;2022-12-17T20:01:23;-5.90;99.90
33927;DHT22;20485;50.992;5.550;2022-12-17T20:03:50;-5.90;99.90
33927;DHT22;20485;50.992;5.550;2022-12-17T20:06:18;-5.90;99.90
33927;DHT22;20485;50.992;5.550;2022-12-17T20:08:44;-5.90;99.90
33927;DHT22;20485;50.992;5.550;2022-12-17T20:11:12;-5.90;99.90
33927;DHT22;20485;50.992;5.550;2022-12-17T20:16:41;-5.90;99.90
33927;DHT22;20485;50.992;5.550;2022-12-17T20:19:11;-5.90;99.90
33927;DHT22;20485;50.992;5.550;2022-12-17T20:21:37;-5.90;99.90
33927;DHT22;20485;50.992;5.550;2022-12-17T20:24:03;-6.00;99.90
33927;DHT22;20485;50.992;5.550;2022-12-17T20:26:30;-6.00;99.90
33927;DHT22;20485;50.992;5.550;2022-12-17T20:28:56;-6.00;99.90
33927;DHT22;20485;50.992;5.550;2022-12-17T20:31:27;-6.00;99.90
33927;DHT22;20485;50.992;5.550;2022-12-17T20:33:56;-6.00;99.90
33927;DHT22;20485;50.992;5.550;2022-12-17T20:36:24;-6.20;99.90
33927;DHT22;20485;50.992;5.550;2022-12-17T20:38:50;-6.10;99.90
